createdAt,value
2018-03-28T00:02:04.793Z,33.50
2018-03-28T00:04:32.952Z,33.40
2018-03-28T00:07:01.121Z,33.30
2018-03-28T00:09:29.258Z,33.30
2018-03-28T00:11:58.164Z,33.80
2018-03-28T00:14:27.084Z,34.00
2018-03-28T00:16:55.402Z,33.90
2018-03-28T00:19:23.574Z,34.00
2018-03-28T00:21:51.725Z,34.00
2018-03-28T00:24:19.870Z,34.00
2018-03-28T00:26:48.049Z,34.10
2018-03-28T00:29:16.231Z,34.10
2018-03-28T00:31:44.397Z,34.10
2018-03-28T00:34:12.534Z,34.20
2018-03-28T00:36:41.462Z,33.80
2018-03-28T00:39:09.634Z,33.80
2018-03-28T00:41:38.130Z,33.80
2018-03-28T00:44:06.295Z,33.70
2018-03-28T00:46:34.464Z,33.60
2018-03-28T00:49:02.614Z,33.70
2018-03-28T00:51:37.572Z,33.70
2018-03-28T00:54:05.749Z,33.80
2018-03-28T00:56:33.923Z,33.90
2018-03-28T00:59:02.138Z,33.90
2018-03-28T01:01:30.295Z,33.90
2018-03-28T01:03:58.533Z,33.90
2018-03-28T01:06:26.914Z,33.80
2018-03-28T01:08:55.061Z,33.60
2018-03-28T01:11:23.217Z,33.50
2018-03-28T01:13:52.113Z,33.40
2018-03-28T01:16:21.015Z,33.30
2018-03-28T01:18:49.190Z,33.30
2018-03-28T01:21:17.320Z,33.20
2018-03-28T01:23:45.469Z,33.20
2018-03-28T01:26:13.614Z,33.30
2018-03-28T01:28:41.765Z,33.10
2018-03-28T01:31:10.666Z,33.10
2018-03-28T01:33:38.824Z,33.10
2018-03-28T01:36:07.713Z,33.20
2018-03-28T01:38:36.650Z,33.10
2018-03-28T01:41:04.793Z,33.10
2018-03-28T01:43:33.098Z,33.10
2018-03-28T01:46:01.234Z,33.00
2018-03-28T01:48:29.364Z,33.00
2018-03-28T01:50:57.524Z,32.90
2018-03-28T01:53:25.670Z,32.90
2018-03-28T01:55:54.156Z,33.10
2018-03-28T01:58:22.255Z,33.10
2018-03-28T02:00:50.394Z,32.90
2018-03-28T02:03:18.550Z,33.00
2018-03-28T02:05:46.690Z,32.90
2018-03-28T02:08:14.841Z,33.00
2018-03-28T02:10:43.004Z,32.90
2018-03-28T02:13:11.155Z,32.80
2018-03-28T02:15:39.303Z,32.80
2018-03-28T02:18:08.495Z,32.70
2018-03-28T02:20:37.381Z,32.80
2018-03-28T02:23:06.312Z,32.70
2018-03-28T02:25:34.449Z,32.70
2018-03-28T02:28:03.373Z,32.70
2018-03-28T02:30:31.506Z,32.60
2018-03-28T02:33:00.434Z,32.70
2018-03-28T02:35:28.575Z,32.70
2018-03-28T02:37:57.496Z,32.70
2018-03-28T02:40:25.737Z,32.70
2018-03-28T02:42:54.673Z,32.70
2018-03-28T02:45:22.814Z,32.60
2018-03-28T02:47:51.250Z,32.90
2018-03-28T02:50:19.457Z,32.90
2018-03-28T02:52:48.361Z,32.60
2018-03-28T02:55:16.507Z,32.60
2018-03-28T02:57:44.641Z,32.70
2018-03-28T03:00:12.792Z,32.80
2018-03-28T03:02:41.214Z,32.90
2018-03-28T03:05:10.155Z,32.80
2018-03-28T03:07:38.305Z,32.90
2018-03-28T03:10:07.485Z,32.80
2018-03-28T03:12:35.613Z,32.80
2018-03-28T03:15:03.751Z,32.70
2018-03-28T03:17:32.976Z,32.60
2018-03-28T03:20:01.107Z,32.60
2018-03-28T03:22:30.075Z,33.10
2018-03-28T03:24:59.234Z,32.50
2018-03-28T03:27:27.379Z,32.50
2018-03-28T03:29:56.285Z,32.50
2018-03-28T03:32:24.449Z,32.40
2018-03-28T03:34:53.364Z,32.60
2018-03-28T03:37:21.507Z,32.60
2018-03-28T03:39:50.426Z,32.40
2018-03-28T03:42:18.575Z,32.40
2018-03-28T03:44:46.721Z,32.20
2018-03-28T03:47:14.951Z,32.00
2018-03-28T03:49:43.100Z,31.80
2018-03-28T03:52:11.235Z,31.70
2018-03-28T03:54:39.374Z,31.50
2018-03-28T03:57:07.522Z,31.50
2018-03-28T03:59:35.658Z,31.60
2018-03-28T04:02:04.677Z,31.70
2018-03-28T04:04:32.916Z,31.70
2018-03-28T04:07:01.069Z,31.70
2018-03-28T04:09:29.201Z,31.60
2018-03-28T04:11:57.358Z,31.60
2018-03-28T04:14:26.265Z,32.00
2018-03-28T04:16:54.410Z,31.90
2018-03-28T04:19:23.313Z,31.90
2018-03-28T04:21:52.339Z,32.00
2018-03-28T04:24:20.560Z,31.90
2018-03-28T04:26:48.685Z,31.90
2018-03-28T04:29:16.832Z,32.00
2018-03-28T04:31:44.981Z,31.90
2018-03-28T04:34:13.104Z,31.80
2018-03-28T04:36:41.311Z,31.90
2018-03-28T04:39:09.401Z,31.80
2018-03-28T04:41:38.312Z,31.80
2018-03-28T04:44:06.472Z,31.70
2018-03-28T04:46:35.358Z,31.60
2018-03-28T04:49:04.275Z,31.60
2018-03-28T04:51:32.422Z,31.50
2018-03-28T04:54:00.653Z,31.70
2018-03-28T04:56:28.806Z,31.60
2018-03-28T04:58:56.937Z,31.70
2018-03-28T05:01:25.832Z,31.90
2018-03-28T05:03:54.721Z,31.90
2018-03-28T05:06:23.637Z,31.90
2018-03-28T05:08:51.776Z,31.90
2018-03-28T05:11:20.746Z,31.80
2018-03-28T05:13:48.880Z,31.80
2018-03-28T05:16:17.022Z,31.60
2018-03-28T05:18:46.014Z,31.10
2018-03-28T05:21:14.163Z,31.10
2018-03-28T05:23:42.313Z,31.00
2018-03-28T05:26:10.580Z,30.90
2018-03-28T05:28:39.550Z,30.70
2018-03-28T05:31:07.710Z,30.70
2018-03-28T05:33:35.850Z,30.70
2018-03-28T05:36:03.999Z,30.60
2018-03-28T05:38:32.139Z,30.50
2018-03-28T05:41:00.268Z,30.60
2018-03-28T05:43:29.218Z,30.50
2018-03-28T05:45:57.361Z,30.50
2018-03-28T05:48:25.535Z,30.50
2018-03-28T05:50:53.673Z,30.40
2018-03-28T05:53:21.805Z,30.50
2018-03-28T05:55:49.983Z,30.40
2018-03-28T05:58:18.131Z,30.40
2018-03-28T06:00:46.271Z,30.40
2018-03-28T06:03:14.500Z,30.30
2018-03-28T06:05:42.653Z,30.30
2018-03-28T06:08:10.846Z,30.30
2018-03-28T06:10:39.070Z,30.20
2018-03-28T06:13:08.058Z,30.30
2018-03-28T06:15:37.058Z,30.30
2018-03-28T06:18:05.978Z,30.30
2018-03-28T06:20:34.116Z,30.20
2018-03-28T06:23:03.008Z,30.20
2018-03-28T06:25:31.908Z,30.30
2018-03-28T06:28:00.822Z,30.30
2018-03-28T06:30:28.999Z,30.20
2018-03-28T06:32:57.271Z,30.20
2018-03-28T06:35:25.407Z,30.30
2018-03-28T06:37:54.388Z,30.20
2018-03-28T06:40:22.532Z,30.20
2018-03-28T06:42:50.673Z,30.20
2018-03-28T06:45:18.836Z,30.20
2018-03-28T06:47:46.991Z,30.20
2018-03-28T06:50:15.939Z,30.30
2018-03-28T06:52:44.086Z,30.30
2018-03-28T06:55:12.214Z,30.30
2018-03-28T06:57:40.329Z,30.30
2018-03-28T07:00:08.450Z,30.40
2018-03-28T07:02:36.663Z,30.30
2018-03-28T07:05:04.966Z,30.30
2018-03-28T07:07:33.147Z,30.40
2018-03-28T07:10:01.280Z,30.30
2018-03-28T07:12:29.414Z,30.30
2018-03-28T07:14:57.545Z,30.30
2018-03-28T07:17:25.672Z,30.20
2018-03-28T07:19:53.846Z,30.20
2018-03-28T07:22:22.757Z,30.50
2018-03-28T07:24:51.806Z,30.30
2018-03-28T07:27:19.940Z,30.90
2018-03-28T07:29:48.103Z,30.30
2018-03-28T07:32:16.247Z,30.30
2018-03-28T07:34:45.237Z,30.40
2018-03-28T07:37:13.457Z,30.40
2018-03-28T07:39:41.610Z,30.40
2018-03-28T07:42:09.786Z,30.40
2018-03-28T07:44:38.003Z,30.50
2018-03-28T07:47:06.232Z,30.50
2018-03-28T07:49:34.414Z,30.60
2018-03-28T07:52:02.598Z,30.60
2018-03-28T07:54:30.811Z,30.60
2018-03-28T07:56:58.977Z,30.70
2018-03-28T07:59:27.109Z,30.70
2018-03-28T08:01:55.250Z,30.70
2018-03-28T08:04:23.460Z,30.70
2018-03-28T08:06:51.629Z,30.70
2018-03-28T08:09:19.806Z,30.70
2018-03-28T08:11:48.781Z,30.70
2018-03-28T08:14:16.944Z,30.70
2018-03-28T08:16:45.140Z,30.70
2018-03-28T08:19:13.315Z,30.70
2018-03-28T08:21:41.395Z,30.70
2018-03-28T08:24:09.545Z,30.80
2018-03-28T08:26:37.715Z,30.80
2018-03-28T08:29:05.864Z,30.70
2018-03-28T08:31:34.787Z,30.80
2018-03-28T08:34:02.950Z,30.80
2018-03-28T08:36:31.098Z,30.80
2018-03-28T08:38:59.990Z,30.80
2018-03-28T08:41:28.906Z,30.80
2018-03-28T08:43:57.104Z,30.80
2018-03-28T08:46:25.325Z,30.80
2018-03-28T08:48:54.342Z,31.50
2018-03-28T08:51:22.546Z,30.80
2018-03-28T08:53:50.759Z,30.80
2018-03-28T08:56:19.706Z,30.90
2018-03-28T08:58:47.837Z,30.80
2018-03-28T09:01:16.821Z,30.80
2018-03-28T09:03:45.723Z,30.90
2018-03-28T09:06:14.667Z,30.80
2018-03-28T09:08:43.622Z,30.90
2018-03-28T09:11:11.805Z,30.90
2018-03-28T09:13:40.119Z,30.90
2018-03-28T09:16:08.309Z,30.90
2018-03-28T09:18:36.479Z,30.90
2018-03-28T09:21:05.431Z,30.90
2018-03-28T09:23:33.605Z,30.90
2018-03-28T09:26:01.756Z,30.90
2018-03-28T09:28:29.929Z,30.90
2018-03-28T09:30:58.103Z,30.90
2018-03-28T09:33:26.257Z,30.90
2018-03-28T09:35:55.270Z,30.90
2018-03-28T09:38:25.884Z,31.00
2018-03-28T09:40:55.111Z,31.00
2018-03-28T09:43:23.599Z,30.90
2018-03-28T09:45:51.807Z,31.00
2018-03-28T09:48:20.202Z,31.10
2018-03-28T09:50:48.449Z,31.00
2018-03-28T09:53:16.733Z,31.10
2018-03-28T09:55:44.867Z,31.00
2018-03-28T09:58:13.002Z,31.00
2018-03-28T10:00:42.075Z,31.00
2018-03-28T10:03:12.860Z,30.60
2018-03-28T10:05:41.010Z,30.90
2018-03-28T10:08:09.223Z,30.90
2018-03-28T10:10:37.379Z,30.90
2018-03-28T10:13:05.553Z,30.80
2018-03-28T10:15:33.721Z,30.80
2018-03-28T10:18:01.890Z,30.80
2018-03-28T10:20:30.055Z,30.90
2018-03-28T10:22:58.210Z,30.80
2018-03-28T10:25:27.119Z,30.80
2018-03-28T10:27:55.294Z,30.80
2018-03-28T10:30:23.517Z,30.80
2018-03-28T10:32:51.675Z,30.80
2018-03-28T10:35:19.873Z,30.80
2018-03-28T10:37:48.160Z,30.80
2018-03-28T10:40:17.104Z,30.80
2018-03-28T10:42:45.253Z,30.80
2018-03-28T10:45:13.402Z,30.80
2018-03-28T10:47:42.316Z,30.90
2018-03-28T10:50:10.511Z,30.90
2018-03-28T10:52:38.661Z,30.90
2018-03-28T10:55:06.830Z,30.90
2018-03-28T10:57:34.987Z,30.90
2018-03-28T11:00:03.938Z,30.90
2018-03-28T11:02:32.098Z,30.90
2018-03-28T11:05:00.286Z,30.90
2018-03-28T11:07:28.442Z,31.00
2018-03-28T11:09:56.639Z,30.90
2018-03-28T11:12:24.813Z,31.00
2018-03-28T11:14:53.025Z,31.00
2018-03-28T11:17:21.946Z,31.00
2018-03-28T11:19:50.172Z,31.00
2018-03-28T11:22:18.379Z,31.00
2018-03-28T11:24:46.568Z,31.10
2018-03-28T11:27:14.753Z,31.10
2018-03-28T11:29:42.974Z,31.00
2018-03-28T11:32:11.937Z,31.10
2018-03-28T11:34:40.134Z,31.10
2018-03-28T11:37:09.071Z,31.20
2018-03-28T11:39:37.243Z,31.10
2018-03-28T11:42:09.298Z,31.20
2018-03-28T11:44:37.590Z,31.10
2018-03-28T11:47:05.766Z,31.10
2018-03-28T11:49:34.110Z,31.20
2018-03-28T11:52:02.277Z,31.20
2018-03-28T11:54:30.424Z,31.10
2018-03-28T11:56:59.399Z,31.30
2018-03-28T11:59:28.367Z,31.20
2018-03-28T12:01:56.594Z,31.20
2018-03-28T12:04:25.711Z,31.10
2018-03-28T12:06:54.625Z,31.10
2018-03-28T12:09:22.788Z,31.10
2018-03-28T12:11:50.952Z,31.20
2018-03-28T12:14:19.239Z,31.20
2018-03-28T12:16:48.108Z,31.10
2018-03-28T12:19:16.274Z,31.10
2018-03-28T12:21:44.455Z,31.10
2018-03-28T12:24:12.622Z,31.20
2018-03-28T12:26:41.626Z,31.20
2018-03-28T12:29:09.803Z,31.20
2018-03-28T12:31:37.992Z,31.20
2018-03-28T12:34:06.151Z,31.40
2018-03-28T12:36:34.415Z,31.40
2018-03-28T12:39:02.588Z,31.30
2018-03-28T12:41:30.880Z,31.30
2018-03-28T12:43:59.099Z,31.40
2018-03-28T12:46:27.370Z,31.40
2018-03-28T12:48:55.632Z,31.40
2018-03-28T12:51:23.805Z,31.40
2018-03-28T12:53:52.791Z,31.00
2018-03-28T12:56:20.951Z,31.10
2018-03-28T12:58:49.100Z,31.00
2018-03-28T13:01:17.280Z,30.90
2018-03-28T13:03:46.209Z,30.90
2018-03-28T13:06:14.386Z,30.90
2018-03-28T13:08:42.563Z,30.90
2018-03-28T13:11:10.911Z,30.80
2018-03-28T13:13:39.070Z,30.70
2018-03-28T13:16:07.221Z,30.80
2018-03-28T13:18:35.485Z,30.90
2018-03-28T13:21:03.653Z,31.10
2018-03-28T13:23:32.596Z,31.10
2018-03-28T13:26:00.727Z,31.00
2018-03-28T13:28:29.687Z,31.00
2018-03-28T13:30:57.825Z,31.00
2018-03-28T13:33:26.038Z,30.90
2018-03-28T13:35:55.803Z,31.00
2018-03-28T13:38:23.959Z,30.90
2018-03-28T13:40:52.174Z,30.90
2018-03-28T13:43:20.319Z,30.90
2018-03-28T13:45:48.490Z,30.90
2018-03-28T13:48:17.437Z,30.90
2018-03-28T13:50:45.629Z,31.00
2018-03-28T13:53:14.582Z,31.10
2018-03-28T13:55:42.746Z,31.10
2018-03-28T13:58:10.960Z,31.00
2018-03-28T14:00:39.876Z,31.00
2018-03-28T14:03:08.152Z,31.00
2018-03-28T14:05:37.047Z,30.90
2018-03-28T14:08:05.206Z,30.90
2018-03-28T14:10:33.408Z,30.90
2018-03-28T14:13:01.562Z,30.90
2018-03-28T14:15:29.710Z,31.00
2018-03-28T14:17:58.666Z,30.90
2018-03-28T14:20:26.832Z,30.90
2018-03-28T14:22:55.024Z,31.00
2018-03-28T14:25:23.177Z,30.90
2018-03-28T14:27:51.341Z,30.90
2018-03-28T14:30:19.482Z,30.90
2018-03-28T14:32:47.653Z,31.00
2018-03-28T14:35:15.845Z,31.00
2018-03-28T14:37:44.011Z,30.90
2018-03-28T14:40:13.183Z,30.90
2018-03-28T14:42:41.377Z,30.90
2018-03-28T14:45:09.640Z,31.10
2018-03-28T14:47:38.648Z,31.10
2018-03-28T14:50:06.788Z,31.10
2018-03-28T14:52:35.766Z,31.10
2018-03-28T14:55:03.917Z,31.10
2018-03-28T14:57:32.198Z,31.00
2018-03-28T15:00:00.393Z,31.00
2018-03-28T15:02:28.568Z,31.00
2018-03-28T15:04:57.526Z,31.00
2018-03-28T15:07:25.674Z,30.90
2018-03-28T15:09:53.875Z,31.10
2018-03-28T15:15:03.721Z,31.10
2018-03-28T15:17:31.970Z,31.10
2018-03-28T15:20:00.189Z,31.10
2018-03-28T15:22:28.369Z,31.10
2018-03-28T15:24:56.513Z,31.10
2018-03-28T15:27:24.679Z,31.10
2018-03-28T15:29:52.854Z,31.20
2018-03-28T15:32:21.062Z,31.10
2018-03-28T15:34:49.261Z,31.20
2018-03-28T15:37:18.199Z,31.20
2018-03-28T15:39:46.472Z,31.30
2018-03-28T15:42:14.674Z,31.30
2018-03-28T15:44:42.901Z,31.30
2018-03-28T15:47:11.072Z,31.30
2018-03-28T15:49:39.193Z,31.30
2018-03-28T15:52:07.367Z,31.30
2018-03-28T15:54:35.498Z,31.30
2018-03-28T15:57:03.650Z,31.20
2018-03-28T15:59:31.887Z,31.20
2018-03-28T16:02:00.061Z,31.20
2018-03-28T16:04:28.227Z,31.20
2018-03-28T16:06:56.502Z,31.30
2018-03-28T16:09:24.662Z,31.20
2018-03-28T16:11:52.893Z,31.30
2018-03-28T16:14:21.103Z,31.30
2018-03-28T16:16:49.298Z,31.30
2018-03-28T16:19:17.441Z,31.30
2018-03-28T16:21:45.580Z,31.40
2018-03-28T16:24:13.763Z,31.40
2018-03-28T16:26:41.952Z,31.40
2018-03-28T16:29:11.493Z,31.40
2018-03-28T16:31:39.683Z,31.40
2018-03-28T16:34:08.609Z,31.40
2018-03-28T16:36:36.861Z,31.40
2018-03-28T16:39:06.702Z,31.40
2018-03-28T16:41:34.915Z,31.30
2018-03-28T16:44:03.076Z,31.30
2018-03-28T16:46:31.282Z,31.30
2018-03-28T16:49:00.421Z,31.30
2018-03-28T16:51:28.566Z,31.30
2018-03-28T16:53:57.502Z,31.20
2018-03-28T16:56:25.661Z,31.20
2018-03-28T16:58:53.801Z,31.20
2018-03-28T17:01:22.712Z,31.20
2018-03-28T17:03:50.920Z,31.20
2018-03-28T17:06:19.131Z,31.10
2018-03-28T17:08:48.061Z,31.20
2018-03-28T17:11:16.337Z,31.10
2018-03-28T17:13:44.507Z,31.20
2018-03-28T17:16:12.676Z,31.10
2018-03-28T17:18:40.875Z,31.10
2018-03-28T17:21:09.321Z,31.00
2018-03-28T17:23:37.613Z,31.10
2018-03-28T17:26:05.822Z,31.10
2018-03-28T17:28:33.974Z,31.00
2018-03-28T17:31:02.147Z,31.10
2018-03-28T17:33:30.484Z,31.00
2018-03-28T17:35:58.707Z,31.70
2018-03-28T17:38:26.864Z,31.00
2018-03-28T17:40:55.034Z,31.00
2018-03-28T17:43:23.202Z,31.60
2018-03-28T17:45:51.369Z,31.00
2018-03-28T17:48:19.556Z,31.00
2018-03-28T17:50:47.726Z,30.90
2018-03-28T17:53:15.922Z,31.00
2018-03-28T17:55:44.073Z,31.00
2018-03-28T17:58:12.274Z,30.90
2018-03-28T18:00:41.293Z,31.00
2018-03-28T18:03:10.197Z,31.20
2018-03-28T18:05:38.377Z,31.20
2018-03-28T18:08:06.557Z,31.30
2018-03-28T18:10:34.765Z,31.30
2018-03-28T18:13:02.965Z,31.30
2018-03-28T18:15:32.043Z,31.70
2018-03-28T18:18:00.199Z,31.60
2018-03-28T18:20:28.446Z,31.10
2018-03-28T18:22:56.625Z,31.80
2018-03-28T18:25:24.753Z,31.70
2018-03-28T18:27:53.066Z,31.60
2018-03-28T18:30:21.239Z,31.80
2018-03-28T18:32:49.404Z,31.80
2018-03-28T18:35:17.582Z,31.90
2018-03-28T18:37:45.752Z,31.80
2018-03-28T18:40:14.055Z,31.60
2018-03-28T18:42:42.306Z,31.70
2018-03-28T18:45:10.500Z,31.70
2018-03-28T18:47:38.725Z,31.70
2018-03-28T18:50:06.847Z,31.90
2018-03-28T18:52:35.029Z,31.90
2018-03-28T18:55:03.311Z,32.00
2018-03-28T18:57:31.483Z,32.00
2018-03-28T18:59:59.633Z,32.00
2018-03-28T19:02:28.704Z,32.00
2018-03-28T19:04:56.989Z,32.20
2018-03-28T19:07:25.154Z,33.00
2018-03-28T19:09:53.324Z,32.60
2018-03-28T19:12:21.584Z,32.60
2018-03-28T19:14:50.601Z,32.90
2018-03-28T19:17:18.760Z,32.90
2018-03-28T19:19:47.744Z,32.50
2018-03-28T19:22:16.664Z,32.50
2018-03-28T19:24:44.888Z,32.40
2018-03-28T19:27:13.879Z,32.30
2018-03-28T19:29:42.155Z,32.40
2018-03-28T19:32:10.337Z,32.30
2018-03-28T19:34:38.586Z,32.00
2018-03-28T19:37:06.769Z,32.10
2018-03-28T19:39:35.711Z,32.20
2018-03-28T19:42:03.902Z,32.20
2018-03-28T19:44:32.079Z,32.20
2018-03-28T19:47:00.229Z,32.30
2018-03-28T19:49:28.389Z,32.20
2018-03-28T19:51:57.311Z,32.10
2018-03-28T19:54:25.519Z,32.10
2018-03-28T19:56:53.711Z,32.10
2018-03-28T19:59:22.002Z,32.10
2018-03-28T20:01:50.933Z,32.10
2018-03-28T20:04:19.069Z,32.10
2018-03-28T20:06:47.403Z,32.10
2018-03-28T20:09:15.565Z,32.00
2018-03-28T20:11:43.748Z,32.00
2018-03-28T20:14:12.067Z,32.10
2018-03-28T20:16:40.988Z,32.10
2018-03-28T20:19:09.140Z,32.10
2018-03-28T20:21:37.303Z,32.10
2018-03-28T20:24:05.709Z,32.10
2018-03-28T20:26:34.577Z,31.60
2018-03-28T20:29:02.733Z,32.00
2018-03-28T20:31:31.006Z,32.00
2018-03-28T20:33:59.162Z,32.10
2018-03-28T20:36:28.802Z,32.10
2018-03-28T20:38:56.948Z,32.10
2018-03-28T20:41:25.923Z,32.10
2018-03-28T20:43:54.051Z,32.10
2018-03-28T20:46:22.217Z,32.20
2018-03-28T20:48:50.409Z,32.30
2018-03-28T20:51:18.528Z,32.50
2018-03-28T20:53:46.702Z,32.60
2018-03-28T20:56:15.613Z,31.90
2018-03-28T20:58:43.955Z,31.80
2018-03-28T21:01:12.110Z,32.70
2018-03-28T21:03:40.247Z,31.90
2018-03-28T21:06:08.404Z,32.20
2018-03-28T21:08:36.559Z,31.90
2018-03-28T21:11:05.466Z,33.30
2018-03-28T21:13:33.630Z,32.60
2018-03-28T21:16:02.563Z,32.40
2018-03-28T21:18:30.753Z,32.40
2018-03-28T21:20:58.963Z,32.40
2018-03-28T21:23:27.959Z,32.50
2018-03-28T21:25:56.124Z,32.40
2018-03-28T21:28:24.346Z,31.50
2018-03-28T21:30:52.498Z,32.10
2018-03-28T21:33:20.666Z,32.50
2018-03-28T21:35:48.841Z,32.30
2018-03-28T21:38:17.023Z,32.30
2018-03-28T21:40:45.192Z,31.70
2018-03-28T21:43:13.385Z,32.20
2018-03-28T21:45:41.575Z,32.50
2018-03-28T21:48:09.718Z,32.40
2018-03-28T21:50:37.869Z,32.40
2018-03-28T21:53:06.020Z,31.50
2018-03-28T21:55:34.212Z,31.90
2018-03-28T21:58:03.176Z,32.50
2018-03-28T22:00:31.362Z,32.40
2018-03-28T22:02:59.875Z,32.40
